Time;durP1;ratioP1;P1;durP2;ratioP2;P2;SDS_P1;SDS_P2;PMS_P1;PMS_P2;Temp;Humidity;BMP_temperature;BMP_pressure;BME280_temperature;BME280_humidity;BME280_pressure;Samples;Min_cycle;Max_cycle;Signal;HPM_P1;HPM_P2
2023/08/12 00:02:01;;;;;;;5.03;4.73;;;18.00;70.70;;;;;;6238279;28;20241;-83
2023/08/12 00:05:05;;;;;;;5.13;4.93;;;18.00;70.70;;;;;;6247856;28;20246;-84
2023/08/12 00:08:09;;;;;;;4.90;4.70;;;17.90;70.70;;;;;;6257270;28;20245;-80
2023/08/12 00:11:13;;;;;;;4.50;4.30;;;17.80;70.80;;;;;;6231871;28;20244;-80
2023/08/12 00:14:16;;;;;;;5.40;5.20;;;17.80;71.00;;;;;;6242267;28;20231;-81
2023/08/12 00:17:19;;;;;;;5.43;5.13;;;17.80;71.10;;;;;;6255377;28;20292;-81
2023/08/12 00:20:23;;;;;;;5.23;4.93;;;17.80;71.30;;;;;;6252333;28;20363;-82
2023/08/12 00:23:26;;;;;;;5.40;5.30;;;17.70;71.60;;;;;;6252802;28;20237;-81
2023/08/12 00:26:30;;;;;;;6.03;5.73;;;17.60;71.60;;;;;;6239431;28;20226;-83
2023/08/12 00:29:34;;;;;;;6.27;5.87;;;17.60;71.70;;;;;;6235294;28;20259;-83
2023/08/12 00:32:37;;;;;;;6.67;5.97;;;17.60;71.80;;;;;;6231777;28;20238;-83
2023/08/12 00:35:40;;;;;;;5.83;5.53;;;17.60;71.90;;;;;;6247186;28;20238;-82
2023/08/12 00:38:45;;;;;;;6.43;6.03;;;17.60;71.90;;;;;;6237871;28;20272;-82
2023/08/12 00:41:50;;;;;;;5.87;5.47;;;17.60;71.90;;;;;;6232431;28;20883;-83
2023/08/12 00:44:55;;;;;;;6.00;5.70;;;17.60;71.90;;;;;;6247428;28;20226;-82
2023/08/12 00:47:59;;;;;;;5.63;5.40;;;17.60;72.00;;;;;;6254908;28;20238;-81
2023/08/12 00:51:03;;;;;;;5.93;5.53;;;17.60;72.00;;;;;;6256534;28;20888;-81
2023/08/12 00:54:09;;;;;;;6.00;5.80;;;17.60;72.10;;;;;;6249539;28;20313;-82
2023/08/12 00:57:13;;;;;;;5.93;5.63;;;17.60;72.00;;;;;;6237203;28;20231;-82
2023/08/12 01:00:20;;;;;;;6.17;5.80;;;17.60;72.00;;;;;;6242510;28;20241;-84
2023/08/12 01:03:24;;;;;;;5.57;5.37;;;17.60;72.00;;;;;;6244523;28;20227;-83
2023/08/12 01:06:28;;;;;;;5.87;5.53;;;17.60;71.90;;;;;;6249249;28;20315;-81
2023/08/12 01:09:31;;;;;;;5.70;5.37;;;17.60;71.90;;;;;;6237578;28;20243;-81
2023/08/12 01:12:41;;;;;;;6.00;5.43;;;17.60;72.00;;;;;;6251820;28;20238;-81
2023/08/12 01:15:46;;;;;;;7.93;6.13;;;17.60;71.90;;;;;;6237265;28;20231;-83
2023/08/12 01:18:50;;;;;;;6.13;5.73;;;17.60;72.10;;;;;;6253544;28;20774;-83
2023/08/12 01:21:55;;;;;;;5.60;5.37;;;17.60;72.00;;;;;;6231988;28;20242;-83
2023/08/12 01:24:59;;;;;;;5.13;4.97;;;17.50;71.90;;;;;;6244356;28;20246;-81
2023/08/12 01:28:03;;;;;;;5.57;5.20;;;17.60;71.90;;;;;;6233190;28;20243;-82
2023/08/12 01:31:12;;;;;;;5.90;5.60;;;17.50;71.90;;;;;;6247081;28;20246;-81
2023/08/12 01:34:21;;;;;;;7.03;6.13;;;17.50;72.00;;;;;;6254465;28;20365;-81
2023/08/12 01:37:27;;;;;;;6.33;5.93;;;17.50;72.10;;;;;;6246927;28;20231;-83
2023/08/12 01:40:33;;;;;;;5.50;5.30;;;17.50;72.10;;;;;;6258438;28;20229;-81
2023/08/12 01:43:36;;;;;;;7.30;6.90;;;17.50;72.00;;;;;;6243230;28;20614;-84
2023/08/12 01:46:39;;;;;;;5.57;5.27;;;17.40;72.50;;;;;;6243927;28;20258;-79
2023/08/12 01:49:43;;;;;;;6.13;5.73;;;17.40;72.20;;;;;;6241972;28;20366;-82
2023/08/12 01:52:46;;;;;;;6.17;5.70;;;17.40;72.30;;;;;;6229703;28;20234;-79
2023/08/12 01:55:51;;;;;;;5.97;5.53;;;17.40;72.40;;;;;;6254230;28;20234;-82
2023/08/12 01:58:54;;;;;;;5.83;5.53;;;17.40;72.40;;;;;;6231512;28;20250;-82
2023/08/12 02:01:57;;;;;;;5.50;5.30;;;17.40;72.40;;;;;;6237369;28;20234;-80
2023/08/12 02:05:00;;;;;;;5.90;5.30;;;17.40;72.40;;;;;;6202933;28;20266;-81
2023/08/12 02:08:05;;;;;;;6.43;5.87;;;17.30;72.40;;;;;;6236398;28;20253;-79
2023/08/12 02:11:09;;;;;;;5.70;5.30;;;17.30;72.50;;;;;;6255338;28;20235;-82
2023/08/12 02:14:13;;;;;;;5.83;5.47;;;17.30;72.50;;;;;;6253840;28;20666;-83
2023/08/12 02:17:16;;;;;;;5.27;5.17;;;17.30;72.50;;;;;;6240671;28;20254;-79
2023/08/12 02:20:19;;;;;;;6.70;5.17;;;17.30;72.50;;;;;;6261342;28;20234;-81
2023/08/12 02:23:22;;;;;;;5.80;5.50;;;17.30;72.50;;;;;;6254672;28;20230;-81
2023/08/12 02:26:27;;;;;;;9.17;6.10;;;17.30;72.50;;;;;;6262697;28;20269;-81
2023/08/12 02:29:30;;;;;;;6.43;6.03;;;17.30;72.50;;;;;;6256532;28;20784;-83
2023/08/12 02:32:33;;;;;;;5.40;5.00;;;17.40;72.30;;;;;;6261872;28;20245;-84
2023/08/12 02:35:37;;;;;;;6.07;5.77;;;17.40;72.20;;;;;;6262453;28;20237;-82
2023/08/12 02:38:40;;;;;;;5.97;5.67;;;17.40;72.10;;;;;;6260750;28;20230;-83
2023/08/12 02:41:45;;;;;;;5.43;5.13;;;17.40;72.20;;;;;;6252840;28;20238;-83
2023/08/12 02:44:48;;;;;;;6.03;5.63;;;17.40;72.10;;;;;;6258447;28;20238;-83
2023/08/12 02:47:51;;;;;;;5.73;5.47;;;17.40;72.10;;;;;;6264791;28;20696;-83
2023/08/12 02:50:54;;;;;;;6.17;5.80;;;17.40;72.20;;;;;;6260496;28;20529;-84
2023/08/12 02:53:57;;;;;;;5.87;5.50;;;17.40;72.20;;;;;;6253962;28;20244;-82
2023/08/12 02:57:02;;;;;;;6.33;5.90;;;17.40;72.20;;;;;;6269588;28;20237;-83
2023/08/12 03:00:07;;;;;;;6.07;5.63;;;17.40;72.30;;;;;;6253835;28;20248;-81
2023/08/12 03:03:10;;;;;;;5.37;5.10;;;17.40;72.30;;;;;;6253496;28;20245;-83
2023/08/12 03:06:14;;;;;;;5.50;5.30;;;17.40;72.30;;;;;;6258443;28;20238;-83
2023/08/12 03:09:18;;;;;;;6.10;5.90;;;17.30;72.30;;;;;;6253050;28;20238;-82
2023/08/12 03:12:22;;;;;;;6.67;6.13;;;17.40;72.40;;;;;;6255555;28;20269;-84
2023/08/12 03:15:26;;;;;;;6.23;5.63;;;17.30;72.40;;;;;;6248200;28;21234;-78
2023/08/12 03:18:30;;;;;;;5.87;5.40;;;17.30;72.50;;;;;;6261809;28;20242;-80
2023/08/12 03:21:34;;;;;;;6.13;5.83;;;17.30;72.50;;;;;;6257980;28;20234;-81
2023/08/12 03:24:38;;;;;;;6.70;6.17;;;17.20;72.50;;;;;;6257671;28;20721;-83
2023/08/12 03:27:43;;;;;;;5.90;5.60;;;17.20;72.50;;;;;;6260501;28;20258;-84
2023/08/12 03:30:52;;;;;;;5.77;5.43;;;17.20;72.50;;;;;;6256849;28;20252;-83
2023/08/12 03:33:55;;;;;;;5.57;5.37;;;17.20;72.60;;;;;;6249021;28;20241;-80
2023/08/12 03:36:58;;;;;;;6.37;5.97;;;17.20;72.50;;;;;;6258237;28;20233;-80
2023/08/12 03:40:02;;;;;;;5.53;5.37;;;17.20;72.50;;;;;;6261646;28;20672;-80
2023/08/12 03:43:06;;;;;;;5.53;5.37;;;17.10;72.50;;;;;;6264822;28;20237;-84
2023/08/12 03:46:10;;;;;;;6.50;6.07;;;17.10;72.60;;;;;;6264977;28;20238;-79
2023/08/12 03:49:13;;;;;;;6.17;5.77;;;17.10;72.70;;;;;;6263201;28;20238;-81
2023/08/12 03:52:16;;;;;;;6.00;5.73;;;17.20;72.50;;;;;;6264655;28;20317;-81
2023/08/12 03:55:19;;;;;;;5.47;5.20;;;17.20;72.50;;;;;;6264331;28;20752;-81
2023/08/12 03:58:24;;;;;;;5.83;5.53;;;17.10;72.40;;;;;;6260304;28;20234;-80
2023/08/12 04:01:27;;;;;;;5.57;5.37;;;17.10;72.50;;;;;;6261653;28;20274;-81
2023/08/12 04:04:30;;;;;;;6.90;6.40;;;17.00;72.50;;;;;;6257202;28;20241;-81
2023/08/12 04:07:33;;;;;;;6.00;5.80;;;17.00;72.50;;;;;;6256422;28;20234;-82
2023/08/12 04:10:37;;;;;;;5.63;5.33;;;17.00;72.60;;;;;;6260883;28;20976;-82
2023/08/12 04:13:41;;;;;;;5.37;5.27;;;17.00;72.60;;;;;;6261278;28;20375;-83
2023/08/12 04:16:44;;;;;;;5.60;5.37;;;17.00;72.60;;;;;;6260960;28;20234;-78
2023/08/12 04:19:49;;;;;;;6.40;6.00;;;17.00;72.60;;;;;;6263713;28;20246;-80
2023/08/12 04:22:52;;;;;;;6.70;6.30;;;17.00;72.50;;;;;;6263602;28;20605;-78
2023/08/12 04:25:55;;;;;;;6.13;5.53;;;17.00;72.50;;;;;;6263347;28;20237;-81
2023/08/12 04:28:59;;;;;;;5.90;5.60;;;17.00;72.40;;;;;;6260102;28;20312;-80
2023/08/12 04:32:03;;;;;;;5.87;5.57;;;17.10;72.50;;;;;;6260995;28;20234;-82
2023/08/12 04:35:06;;;;;;;9.10;8.40;;;17.10;72.40;;;;;;6264287;28;20257;-81
2023/08/12 04:38:11;;;;;;;7.57;7.17;;;17.10;72.50;;;;;;6263019;28;20234;-80
2023/08/12 04:41:14;;;;;;;6.60;6.20;;;17.10;72.50;;;;;;6260291;28;20700;-80
2023/08/12 04:44:19;;;;;;;6.50;6.10;;;17.20;72.50;;;;;;6261405;28;20316;-80
2023/08/12 04:47:22;;;;;;;6.60;6.10;;;17.20;72.50;;;;;;6261357;28;20245;-82
2023/08/12 04:50:25;;;;;;;6.90;6.40;;;17.20;72.40;;;;;;6259673;28;20321;-80
2023/08/12 04:53:28;;;;;;;5.87;5.57;;;17.40;72.20;;;;;;6258248;28;20253;-80
2023/08/12 04:56:31;;;;;;;6.13;5.73;;;17.40;72.10;;;;;;6253002;28;20230;-81
2023/08/12 04:59:36;;;;;;;7.33;6.67;;;17.50;71.90;;;;;;6263438;28;20264;-79
2023/08/12 05:02:40;;;;;;;6.30;5.80;;;17.60;71.80;;;;;;6257805;28;20233;-79
2023/08/12 05:05:43;;;;;;;6.90;6.30;;;17.70;71.70;;;;;;6256897;28;20226;-81
2023/08/12 05:08:46;;;;;;;5.90;5.50;;;17.80;71.40;;;;;;6261934;28;20246;-81
2023/08/12 05:11:49;;;;;;;5.27;5.07;;;17.80;71.30;;;;;;6257600;28;20607;-80
2023/08/12 05:14:54;;;;;;;6.13;5.73;;;18.00;70.80;;;;;;6255728;28;20603;-80
2023/08/12 05:17:57;;;;;;;5.43;5.23;;;18.00;70.10;;;;;;6253853;28;20797;-80
2023/08/12 05:21:00;;;;;;;5.60;5.30;;;18.10;70.40;;;;;;6256655;28;20237;-80
2023/08/12 05:24:05;;;;;;;5.83;5.40;;;18.30;70.10;;;;;;6265608;28;20242;-80
2023/08/12 05:27:08;;;;;;;5.77;5.33;;;18.60;69.00;;;;;;6258298;28;20235;-77
2023/08/12 05:30:14;;;;;;;5.10;4.83;;;18.80;68.70;;;;;;6257799;28;20237;-79
2023/08/12 05:33:17;;;;;;;5.63;5.33;;;19.10;68.30;;;;;;6261404;28;20241;-79
2023/08/12 05:36:20;;;;;;;5.03;4.73;;;19.40;67.30;;;;;;6264638;28;20679;-83
2023/08/12 05:39:24;;;;;;;5.17;4.97;;;19.70;66.90;;;;;;6276419;28;20233;-81
2023/08/12 05:42:27;;;;;;;4.83;4.70;;;19.90;66.30;;;;;;6268519;28;20356;-82
2023/08/12 05:45:31;;;;;;;4.90;4.57;;;20.20;65.80;;;;;;6261981;28;20253;-83
2023/08/12 05:48:34;;;;;;;4.67;4.50;;;20.30;65.00;;;;;;6269038;28;20306;-81
2023/08/12 05:51:38;;;;;;;5.20;4.90;;;20.50;64.30;;;;;;6267123;28;20319;-80
2023/08/12 05:54:41;;;;;;;5.10;4.80;;;20.70;64.30;;;;;;6249709;28;20252;-82
2023/08/12 05:57:44;;;;;;;5.00;4.80;;;20.70;63.90;;;;;;6251846;28;20238;-79
2023/08/12 06:00:49;;;;;;;4.77;4.57;;;20.60;63.70;;;;;;6260274;28;20242;-80
2023/08/12 06:03:52;;;;;;;4.87;4.57;;;20.60;64.60;;;;;;6260141;28;20321;-83
2023/08/12 06:06:55;;;;;;;4.53;4.40;;;20.50;64.60;;;;;;6261373;28;20234;-81
2023/08/12 06:09:58;;;;;;;5.50;5.00;;;20.60;64.50;;;;;;6270934;28;20343;-85
2023/08/12 06:13:01;;;;;;;6.50;4.93;;;20.60;64.70;;;;;;6277005;28;20253;-83
2023/08/12 06:16:06;;;;;;;5.33;4.93;;;20.70;64.90;;;;;;6254685;28;20244;-82
2023/08/12 06:19:09;;;;;;;5.37;5.07;;;20.80;64.90;;;;;;6274134;28;20244;-82
2023/08/12 06:22:14;;;;;;;5.47;5.10;;;20.80;64.10;;;;;;6280100;28;20289;-82
2023/08/12 06:25:18;;;;;;;5.47;5.23;;;21.00;64.10;;;;;;6281592;28;20255;-83
2023/08/12 06:28:21;;;;;;;6.57;5.70;;;21.10;63.90;;;;;;6252052;28;20414;-82
2023/08/12 06:31:25;;;;;;;5.90;5.47;;;21.40;63.60;;;;;;6263814;28;20245;-82
2023/08/12 06:34:28;;;;;;;5.27;5.00;;;21.50;63.30;;;;;;6260672;28;20234;-82
2023/08/12 06:37:31;;;;;;;5.30;4.80;;;21.50;63.50;;;;;;6253339;28;20241;-83
2023/08/12 06:40:34;;;;;;;5.30;5.10;;;21.70;62.90;;;;;;6229330;28;20270;-82
2023/08/12 06:43:38;;;;;;;4.87;4.77;;;21.70;63.00;;;;;;6260151;28;20239;-80
2023/08/12 06:46:42;;;;;;;5.63;5.20;;;21.90;62.90;;;;;;6260849;28;20391;-79
2023/08/12 06:49:46;;;;;;;5.30;4.90;;;21.90;62.10;;;;;;6255300;28;20270;-79
2023/08/12 06:52:49;;;;;;;5.40;5.00;;;21.70;61.90;;;;;;6246452;28;20226;-82
2023/08/12 06:55:52;;;;;;;5.50;5.10;;;21.70;62.40;;;;;;6255825;28;20354;-79
2023/08/12 06:58:55;;;;;;;5.90;5.30;;;21.90;62.80;;;;;;6261840;28;20240;-80
2023/08/12 07:01:59;;;;;;;5.07;4.70;;;22.00;62.90;;;;;;6256945;28;20232;-82
2023/08/12 07:05:03;;;;;;;5.10;4.70;;;22.10;62.40;;;;;;6259677;28;20300;-82
2023/08/12 07:08:06;;;;;;;5.57;5.07;;;22.20;62.80;;;;;;6250191;28;20321;-77
2023/08/12 07:11:09;;;;;;;5.30;5.00;;;22.30;63.10;;;;;;6285014;28;20521;-76
2023/08/12 07:14:12;;;;;;;5.40;5.00;;;22.50;62.40;;;;;;6293075;28;20297;-75
2023/08/12 07:17:17;;;;;;;5.43;4.93;;;22.60;62.10;;;;;;6298134;28;20225;-76
2023/08/12 07:20:20;;;;;;;5.70;5.27;;;22.60;61.60;;;;;;6298072;28;20226;-78
2023/08/12 07:23:23;;;;;;;5.40;5.10;;;22.60;61.20;;;;;;6298314;28;20237;-79
2023/08/12 07:26:26;;;;;;;5.90;5.40;;;22.60;61.60;;;;;;6285821;28;20226;-79
2023/08/12 07:29:29;;;;;;;6.10;5.67;;;22.80;62.00;;;;;;6287233;28;20222;-80
2023/08/12 07:32:34;;;;;;;5.43;4.93;;;23.00;61.60;;;;;;6281294;28;20235;-81
2023/08/12 07:35:37;;;;;;;5.27;4.87;;;23.20;60.80;;;;;;6289571;28;20341;-79
2023/08/12 07:38:40;;;;;;;5.87;5.27;;;23.40;60.30;;;;;;6295746;28;20263;-77
2023/08/12 07:41:43;;;;;;;5.40;5.10;;;23.50;59.80;;;;;;6294729;28;20218;-80
2023/08/12 07:44:47;;;;;;;5.17;4.87;;;23.50;59.80;;;;;;6295173;28;20276;-77
2023/08/12 07:47:51;;;;;;;5.63;5.23;;;23.60;59.50;;;;;;6296944;28;20248;-80
2023/08/12 07:50:58;;;;;;;5.60;5.10;;;23.70;59.70;;;;;;6294677;28;20252;-82
2023/08/12 07:54:01;;;;;;;5.37;5.17;;;23.80;59.30;;;;;;6287663;28;20250;-78
2023/08/12 07:57:05;;;;;;;5.70;5.30;;;23.90;60.10;;;;;;6291738;28;20322;-78
2023/08/12 08:00:10;;;;;;;5.70;4.87;;;24.00;60.00;;;;;;6291602;28;20464;-80
2023/08/12 08:03:14;;;;;;;5.77;5.30;;;24.00;59.50;;;;;;6297904;28;20226;-82
2023/08/12 08:06:18;;;;;;;5.80;5.50;;;24.00;59.00;;;;;;6292493;28;20237;-81
2023/08/12 08:09:21;;;;;;;5.23;4.87;;;24.00;59.60;;;;;;6291823;28;20226;-79
2023/08/12 08:12:24;;;;;;;5.43;5.23;;;24.10;60.00;;;;;;6296989;28;20238;-80
2023/08/12 08:15:27;;;;;;;5.60;5.17;;;24.20;60.10;;;;;;6296194;28;21176;-80
2023/08/12 08:18:32;;;;;;;6.47;5.97;;;24.20;59.60;;;;;;6296186;28;21062;-81
2023/08/12 08:21:35;;;;;;;5.70;5.40;;;24.20;59.30;;;;;;6296161;28;20230;-78
2023/08/12 08:24:39;;;;;;;5.90;5.40;;;24.40;60.00;;;;;;6287837;28;20218;-78
2023/08/12 08:27:42;;;;;;;5.13;4.93;;;24.40;60.10;;;;;;6291272;28;20234;-82
2023/08/12 08:30:46;;;;;;;5.77;5.27;;;24.40;59.80;;;;;;6266754;28;20244;-81
2023/08/12 08:33:51;;;;;;;5.70;5.30;;;24.20;60.00;;;;;;6265126;28;20238;-81
2023/08/12 08:36:54;;;;;;;5.93;5.53;;;24.00;60.40;;;;;;6258893;28;20872;-80
2023/08/12 08:39:57;;;;;;;5.77;5.40;;;23.90;60.50;;;;;;6263773;28;20253;-81
2023/08/12 08:43:03;;;;;;;5.77;5.50;;;23.60;60.90;;;;;;6262118;28;20376;-79
2023/08/12 08:46:08;;;;;;;6.30;5.73;;;23.50;61.20;;;;;;6264725;28;20770;-82
2023/08/12 08:49:14;;;;;;;5.90;5.50;;;23.40;61.70;;;;;;6264003;28;20238;-82
2023/08/12 08:52:18;;;;;;;5.73;5.43;;;23.30;62.50;;;;;;6256438;28;20261;-81
2023/08/12 08:55:21;;;;;;;7.17;5.50;;;23.20;62.90;;;;;;6263408;28;20230;-82
2023/08/12 08:58:25;;;;;;;5.30;5.00;;;23.20;63.20;;;;;;6263481;28;20648;-79
2023/08/12 09:01:31;;;;;;;6.33;5.87;;;23.20;63.70;;;;;;6262743;28;20248;-80
2023/08/12 09:04:35;;;;;;;6.03;5.40;;;23.30;63.80;;;;;;6263077;28;20242;-80
2023/08/12 09:07:40;;;;;;;6.40;5.77;;;23.30;63.60;;;;;;6237056;28;20468;-82
2023/08/12 09:10:44;;;;;;;6.47;6.10;;;23.30;64.50;;;;;;6236464;28;20245;-80
2023/08/12 09:13:49;;;;;;;5.53;5.17;;;23.40;64.40;;;;;;6256579;28;20734;-84
2023/08/12 09:16:52;;;;;;;6.07;5.67;;;23.60;64.30;;;;;;6256981;28;20248;-81
2023/08/12 09:19:58;;;;;;;6.20;5.73;;;23.60;64.20;;;;;;6255641;28;20249;-80
2023/08/12 09:23:02;;;;;;;6.77;6.30;;;23.70;64.10;;;;;;6246425;28;20238;-81
2023/08/12 09:26:13;;;;;;;6.00;5.77;;;23.70;63.90;;;;;;6252951;28;20241;-82
2023/08/12 09:29:23;;;;;;;6.47;5.97;;;23.80;63.70;;;;;;6241936;28;20247;-82
2023/08/12 09:32:28;;;;;;;6.83;6.33;;;24.00;62.60;;;;;;6260877;28;20238;-82
2023/08/12 09:35:37;;;;;;;5.83;5.43;;;24.10;63.40;;;;;;6263383;28;20234;-84
2023/08/12 09:38:41;;;;;;;5.87;5.57;;;24.50;62.70;;;;;;6259111;28;20227;-80
2023/08/12 09:41:44;;;;;;;6.83;6.47;;;24.90;61.80;;;;;;6262140;28;20292;-83
2023/08/12 09:44:47;;;;;;;8.00;7.50;;;25.20;60.20;;;;;;6262819;28;20238;-80
2023/08/12 09:47:51;;;;;;;6.03;5.73;;;25.30;59.40;;;;;;6254916;28;20242;-79
2023/08/12 09:50:56;;;;;;;6.57;6.07;;;25.20;59.80;;;;;;6255811;28;20249;-82
2023/08/12 09:53:59;;;;;;;7.23;6.60;;;25.00;60.20;;;;;;6259226;28;20233;-82
2023/08/12 09:57:04;;;;;;;6.43;5.93;;;25.00;60.00;;;;;;6262630;28;20640;-82
2023/08/12 10:00:12;;;;;;;6.20;5.90;;;25.00;60.10;;;;;;6261890;28;20663;-80
2023/08/12 10:03:21;;;;;;;6.43;5.93;;;25.20;60.00;;;;;;6262378;28;20234;-83
2023/08/12 10:06:26;;;;;;;5.80;5.40;;;25.40;59.90;;;;;;6232002;28;20230;-79
2023/08/12 10:09:30;;;;;;;5.67;5.47;;;25.60;60.10;;;;;;6254202;28;20610;-80
2023/08/12 10:12:35;;;;;;;6.23;5.87;;;25.60;59.60;;;;;;6253338;28;20238;-81
2023/08/12 10:15:39;;;;;;;6.90;6.40;;;25.60;59.50;;;;;;6261963;28;20273;-81
2023/08/12 10:18:44;;;;;;;6.37;5.97;;;25.60;59.20;;;;;;6243707;28;20246;-82
2023/08/12 10:21:52;;;;;;;5.67;5.37;;;25.60;59.40;;;;;;6254147;28;20322;-80
2023/08/12 10:24:55;;;;;;;6.43;5.87;;;25.60;59.60;;;;;;6250818;28;20337;-82
2023/08/12 10:27:58;;;;;;;6.27;5.77;;;25.70;59.70;;;;;;6252599;28;20613;-81
2023/08/12 10:31:02;;;;;;;6.50;5.77;;;25.80;59.80;;;;;;6260681;28;20238;-81
2023/08/12 10:34:05;;;;;;;7.27;5.80;;;25.90;59.20;;;;;;6261831;28;20230;-82
2023/08/12 10:37:11;;;;;;;6.63;6.13;;;26.10;59.70;;;;;;6262630;28;20249;-82
2023/08/12 10:40:22;;;;;;;6.23;5.73;;;26.00;59.30;;;;;;6258317;28;20234;-80
2023/08/12 10:43:27;;;;;;;7.67;6.80;;;26.00;59.30;;;;;;6262608;28;20226;-81
2023/08/12 10:46:33;;;;;;;9.67;6.47;;;25.80;59.50;;;;;;6257261;28;20234;-82
2023/08/12 10:49:39;;;;;;;6.03;5.73;;;26.00;59.40;;;;;;6255647;28;20323;-79
2023/08/12 10:52:45;;;;;;;6.53;6.03;;;26.10;59.30;;;;;;6261508;28;20284;-82
2023/08/12 10:55:50;;;;;;;6.40;5.90;;;26.40;59.20;;;;;;6259594;28;20230;-81
2023/08/12 10:58:53;;;;;;;7.03;6.43;;;26.40;59.00;;;;;;6262662;28;20296;-83
2023/08/12 11:02:08;;;;;;;7.07;6.40;;;26.50;59.20;;;;;;6262927;28;20718;-82
2023/08/12 11:05:13;;;;;;;7.07;6.50;;;26.60;59.10;;;;;;6256531;28;20292;-80
2023/08/12 11:08:18;;;;;;;6.73;6.43;;;26.60;58.90;;;;;;6261719;28;20234;-80
2023/08/12 11:11:23;;;;;;;7.90;7.47;;;26.70;59.00;;;;;;6261063;28;20230;-81
2023/08/12 11:14:26;;;;;;;7.93;7.23;;;26.70;59.40;;;;;;6256426;28;20229;-80
2023/08/12 11:17:33;;;;;;;6.83;6.53;;;26.70;59.10;;;;;;6259367;28;20235;-80
2023/08/12 11:20:37;;;;;;;6.90;6.40;;;26.80;58.20;;;;;;6245731;28;20237;-81
2023/08/12 11:23:42;;;;;;;7.87;7.10;;;26.90;58.50;;;;;;6234949;28;20297;-81
2023/08/12 11:26:47;;;;;;;6.93;6.47;;;26.70;59.00;;;;;;6230204;28;20246;-82
2023/08/12 11:29:51;;;;;;;5.97;5.77;;;26.70;58.80;;;;;;6232444;28;20238;-82
2023/08/12 11:32:55;;;;;;;6.00;5.57;;;26.60;58.60;;;;;;6249609;28;20246;-83
2023/08/12 11:36:00;;;;;;;6.40;5.70;;;26.40;59.10;;;;;;6222111;28;20239;-82
2023/08/12 11:39:06;;;;;;;6.57;5.90;;;26.00;59.10;;;;;;6237400;28;20264;-80
2023/08/12 11:42:10;;;;;;;5.90;5.70;;;25.80;58.90;;;;;;6255711;28;20337;-81
2023/08/12 11:45:17;;;;;;;5.40;5.20;;;25.80;59.00;;;;;;6224758;28;20240;-82
2023/08/12 11:48:21;;;;;;;5.60;5.40;;;25.70;60.00;;;;;;6231657;28;20238;-82
2023/08/12 11:51:24;;;;;;;6.13;5.83;;;25.60;59.30;;;;;;6249526;28;20767;-80
2023/08/12 11:54:29;;;;;;;6.40;5.77;;;25.40;60.50;;;;;;6246672;28;20842;-83
2023/08/12 11:57:36;;;;;;;14.27;12.53;;;25.30;60.90;;;;;;6233229;28;20870;-81
2023/08/12 12:00:40;;;;;;;6.67;6.07;;;25.20;60.90;;;;;;6251632;28;20309;-83
2023/08/12 12:03:45;;;;;;;5.57;5.27;;;25.40;60.70;;;;;;6212055;28;20234;-85
2023/08/12 12:06:49;;;;;;;6.40;5.90;;;25.50;60.40;;;;;;6246995;28;20239;-81
2023/08/12 12:09:54;;;;;;;6.83;6.33;;;25.50;60.90;;;;;;6253166;28;20245;-82
2023/08/12 12:12:58;;;;;;;6.40;6.20;;;25.50;61.00;;;;;;6243318;28;20860;-82
2023/08/12 12:16:01;;;;;;;6.90;6.33;;;25.50;61.50;;;;;;6247710;28;20235;-82
2023/08/12 12:19:05;;;;;;;6.40;6.00;;;25.40;60.80;;;;;;6245857;28;20891;-79
2023/08/12 12:22:09;;;;;;;6.47;5.93;;;25.40;61.30;;;;;;6244786;28;20235;-85
2023/08/12 12:25:19;;;;;;;6.70;6.40;;;25.20;62.00;;;;;;6258821;28;20242;-81
2023/08/12 12:28:23;;;;;;;6.23;5.83;;;25.00;62.10;;;;;;6258085;28;20245;-80
2023/08/12 12:31:27;;;;;;;5.90;5.47;;;25.00;62.20;;;;;;6261545;28;20234;-78
2023/08/12 12:34:30;;;;;;;5.70;5.60;;;24.90;62.50;;;;;;6264090;28;20234;-82
2023/08/12 12:37:34;;;;;;;6.00;5.70;;;24.70;62.80;;;;;;6262003;28;20291;-82
2023/08/12 12:40:39;;;;;;;9.07;8.57;;;24.70;62.90;;;;;;6262268;28;20356;-83
2023/08/12 12:43:42;;;;;;;6.40;6.03;;;24.70;62.90;;;;;;6263620;28;20226;-81
2023/08/12 12:46:46;;;;;;;5.93;5.53;;;24.80;62.20;;;;;;6257545;28;20242;-82
2023/08/12 12:49:50;;;;;;;6.17;5.97;;;24.80;62.20;;;;;;6263213;28;20276;-82
2023/08/12 12:52:53;;;;;;;5.80;5.60;;;25.00;62.20;;;;;;6258034;28;20724;-83
2023/08/12 12:56:03;;;;;;;6.40;6.13;;;25.10;62.10;;;;;;6242681;28;20241;-82
2023/08/12 12:59:06;;;;;;;6.10;5.80;;;25.50;61.30;;;;;;6262644;28;20242;-81
2023/08/12 13:02:09;;;;;;;5.97;5.50;;;25.80;61.40;;;;;;6261805;28;20234;-82
2023/08/12 13:05:13;;;;;;;6.10;5.60;;;26.20;60.60;;;;;;6263788;28;20833;-81
2023/08/12 13:08:16;;;;;;;5.40;5.20;;;26.50;60.00;;;;;;6264456;28;20226;-79
2023/08/12 13:11:21;;;;;;;5.73;5.43;;;26.70;60.20;;;;;;6263612;28;20253;-82
2023/08/12 13:14:24;;;;;;;5.60;5.40;;;26.70;59.60;;;;;;6250991;28;20238;-80
2023/08/12 13:17:27;;;;;;;5.50;5.30;;;26.90;59.50;;;;;;6263719;28;20248;-81
2023/08/12 13:20:31;;;;;;;6.23;5.83;;;27.10;59.50;;;;;;6234584;28;20234;-82
2023/08/12 13:23:34;;;;;;;6.07;5.77;;;27.40;58.70;;;;;;6232613;28;20755;-82
2023/08/12 13:26:39;;;;;;;5.53;5.23;;;27.50;58.90;;;;;;6247097;28;20238;-80
2023/08/12 13:29:42;;;;;;;6.83;5.50;;;27.70;57.60;;;;;;6245051;28;20245;-82
2023/08/12 13:32:45;;;;;;;5.50;4.97;;;27.80;57.60;;;;;;6242132;28;20247;-82
2023/08/12 13:35:49;;;;;;;5.40;5.20;;;27.90;58.20;;;;;;6240140;28;20245;-82
2023/08/12 13:38:52;;;;;;;6.28;5.88;;;28.00;57.70;;;;;;6222323;28;20247;-83
2023/08/12 13:41:56;;;;;;;6.03;5.53;;;28.30;56.90;;;;;;6234368;28;20228;-81
2023/08/12 13:45:00;;;;;;;6.00;4.38;;;28.10;56.40;;;;;;6225803;28;20246;-81
2023/08/12 13:48:03;;;;;;;5.23;4.93;;;28.10;57.60;;;;;;6249452;28;20748;-80
2023/08/12 13:51:07;;;;;;;5.28;4.82;;;28.30;57.50;;;;;;6243637;28;20238;-82
2023/08/12 13:54:10;;;;;;;5.17;4.77;;;28.50;56.10;;;;;;6231161;28;20247;-83
2023/08/12 13:57:14;;;;;;;5.53;5.22;;;28.50;55.80;;;;;;6242176;28;20231;-81
2023/08/12 14:00:17;;;;;;;5.90;5.33;;;28.40;55.40;;;;;;6237842;28;20234;-82
2023/08/12 14:03:21;;;;;;;4.90;4.70;;;28.30;55.50;;;;;;6251836;28;20284;-83
2023/08/12 14:06:24;;;;;;;5.20;5.00;;;28.20;54.90;;;;;;6234829;28;20241;-83
2023/08/12 14:09:28;;;;;;;6.18;5.57;;;28.10;55.30;;;;;;6246332;28;20402;-81
2023/08/12 14:12:32;;;;;;;5.80;5.37;;;27.80;56.10;;;;;;6249992;28;20237;-84
2023/08/12 14:15:35;;;;;;;8.17;5.77;;;27.60;56.30;;;;;;6235898;28;20239;-82
2023/08/12 14:18:38;;;;;;;5.30;5.10;;;27.90;55.60;;;;;;6245519;28;20245;-82
2023/08/12 14:21:41;;;;;;;5.10;4.80;;;28.00;56.00;;;;;;6240429;28;20940;-82
2023/08/12 14:24:45;;;;;;;6.57;5.50;;;27.70;55.70;;;;;;6246149;28;20245;-82
2023/08/12 14:27:49;;;;;;;4.43;4.13;;;27.50;56.00;;;;;;6251454;28;20257;-80
2023/08/12 14:30:52;;;;;;;4.97;4.57;;;27.70;55.20;;;;;;6230118;28;20888;-83
2023/08/12 14:33:56;;;;;;;5.10;4.80;;;27.40;55.40;;;;;;6245182;28;20230;-82
2023/08/12 14:37:00;;;;;;;5.00;4.60;;;27.40;56.00;;;;;;6217731;28;20230;-82
2023/08/12 14:40:05;;;;;;;5.43;5.13;;;27.40;56.10;;;;;;6242569;28;20239;-83
2023/08/12 14:43:09;;;;;;;5.90;5.60;;;27.80;55.00;;;;;;6247261;28;20738;-85
2023/08/12 14:46:12;;;;;;;5.80;5.50;;;27.90;55.40;;;;;;6250559;28;20239;-82
2023/08/12 14:49:15;;;;;;;5.17;4.87;;;28.00;55.70;;;;;;6245177;28;20241;-81
2023/08/12 14:52:19;;;;;;;4.43;4.33;;;27.90;55.70;;;;;;6249328;28;20793;-82
2023/08/12 14:55:22;;;;;;;4.40;4.20;;;27.80;55.40;;;;;;6228657;28;20315;-83
2023/08/12 14:58:27;;;;;;;4.97;4.77;;;28.00;55.00;;;;;;6231066;28;20778;-82
2023/08/12 15:01:30;;;;;;;4.83;4.60;;;28.10;55.00;;;;;;6244966;28;20254;-81
2023/08/12 15:04:33;;;;;;;6.07;5.77;;;28.10;54.70;;;;;;6243130;28;20230;-82
2023/08/12 15:07:36;;;;;;;4.93;4.57;;;28.30;54.70;;;;;;6228905;28;20235;-83
2023/08/12 15:10:39;;;;;;;5.90;5.50;;;28.30;55.10;;;;;;6241029;28;20250;-82
2023/08/12 15:13:44;;;;;;;5.55;5.25;;;28.50;54.90;;;;;;6235265;28;20238;-80
2023/08/12 15:16:47;;;;;;;5.68;5.38;;;28.60;54.70;;;;;;6249191;28;20246;-83
2023/08/12 15:19:50;;;;;;;5.00;4.80;;;28.30;55.30;;;;;;6260168;28;20265;-81
2023/08/12 15:22:54;;;;;;;5.40;5.03;;;28.10;55.30;;;;;;6259415;28;20241;-83
2023/08/12 15:25:57;;;;;;;5.60;5.23;;;28.10;55.00;;;;;;6262044;28;20234;-82
2023/08/12 15:29:01;;;;;;;5.57;5.23;;;28.00;56.10;;;;;;6263203;28;20765;-79
2023/08/12 15:32:05;;;;;;;5.67;5.37;;;27.90;55.50;;;;;;6262544;28;20315;-81
2023/08/12 15:35:09;;;;;;;4.97;4.77;;;27.70;56.50;;;;;;6258221;28;20241;-81
2023/08/12 15:38:12;;;;;;;6.30;5.90;;;27.60;56.70;;;;;;6262911;28;20245;-80
2023/08/12 15:41:17;;;;;;;5.93;5.63;;;27.50;56.40;;;;;;6266306;28;20226;-82
2023/08/12 15:44:21;;;;;;;9.80;6.93;;;27.50;57.00;;;;;;6266390;28;20316;-80
2023/08/12 15:47:26;;;;;;;6.90;6.27;;;27.40;56.20;;;;;;6264627;28;20276;-83
2023/08/12 15:50:29;;;;;;;6.67;6.20;;;27.50;56.80;;;;;;6263983;28;20257;-81
2023/08/12 15:53:32;;;;;;;8.03;7.33;;;27.60;56.70;;;;;;6265365;28;20234;-79
2023/08/12 15:56:36;;;;;;;6.13;5.67;;;27.50;56.50;;;;;;6268392;28;20749;-78
2023/08/12 15:59:42;;;;;;;5.73;5.43;;;27.50;56.50;;;;;;6266894;28;20305;-78